createdAt,value
2022-11-20T00:01:22.320Z,18.20
2022-11-20T00:03:49.511Z,18.20
2022-11-20T00:06:18.217Z,18.20
2022-11-20T00:08:46.103Z,18.20
2022-11-20T00:11:16.678Z,18.20
2022-11-20T00:13:48.670Z,18.10
2022-11-20T00:16:18.822Z,18.20
2022-11-20T00:18:46.272Z,18.10
2022-11-20T00:21:27.239Z,18.10
2022-11-20T00:23:56.042Z,18.20
2022-11-20T00:26:24.914Z,18.10
2022-11-20T00:28:56.742Z,18.10
2022-11-20T00:31:23.704Z,18.10
2022-11-20T00:33:50.575Z,18.10
2022-11-20T00:36:20.204Z,18.10
2022-11-20T00:38:47.180Z,18.10
2022-11-20T00:41:16.351Z,18.10
2022-11-20T00:43:43.415Z,18.10
2022-11-20T00:46:21.488Z,18.10
2022-11-20T00:48:48.693Z,18.10
2022-11-20T00:51:18.464Z,18.10
2022-11-20T00:53:45.593Z,18.10
2022-11-20T00:56:14.795Z,18.10
2022-11-20T00:58:43.722Z,18.10
2022-11-20T01:01:16.661Z,18.10
2022-11-20T01:03:45.858Z,18.10
2022-11-20T01:06:19.296Z,18.10
2022-11-20T01:08:46.910Z,18.10
2022-11-20T01:11:15.934Z,18.10
2022-11-20T01:13:43.985Z,18.10
2022-11-20T01:16:19.728Z,18.10
2022-11-20T01:18:48.376Z,16.90
2022-11-20T01:21:18.985Z,18.10
2022-11-20T01:23:46.323Z,18.10
2022-11-20T01:26:16.335Z,18.10
2022-11-20T01:28:43.499Z,18.10
2022-11-20T01:31:16.292Z,18.10
2022-11-20T01:33:43.778Z,18.00
2022-11-20T01:36:10.925Z,18.00
2022-11-20T01:38:37.662Z,18.00
2022-11-20T01:41:05.410Z,18.00
2022-11-20T01:43:32.059Z,18.10
2022-11-20T01:46:18.790Z,18.00
2022-11-20T01:49:03.495Z,18.00
2022-11-20T01:51:53.289Z,18.00
2022-11-20T01:54:25.542Z,18.10
2022-11-20T01:56:57.465Z,18.00
2022-11-20T01:59:26.466Z,18.00
2022-11-20T02:01:53.455Z,18.00
2022-11-20T02:04:21.240Z,18.00
2022-11-20T02:06:55.985Z,18.00
2022-11-20T02:09:22.994Z,18.00
2022-11-20T02:11:50.461Z,18.00
2022-11-20T02:14:17.198Z,18.00
2022-11-20T02:16:48.865Z,18.00
2022-11-20T02:19:28.584Z,18.00
2022-11-20T02:22:22.239Z,18.00
2022-11-20T02:24:50.789Z,18.00
2022-11-20T02:27:18.761Z,18.00
2022-11-20T02:30:05.613Z,18.00
2022-11-20T02:32:35.618Z,18.00
2022-11-20T02:35:31.721Z,18.00
2022-11-20T02:38:02.104Z,18.10
2022-11-20T02:40:29.338Z,18.00
2022-11-20T02:42:57.329Z,18.00
2022-11-20T02:45:25.027Z,18.00
2022-11-20T02:47:52.196Z,18.40
2022-11-20T02:50:19.087Z,18.00
2022-11-20T02:52:45.708Z,18.00
2022-11-20T02:55:12.380Z,18.00
2022-11-20T02:57:38.987Z,18.00
2022-11-20T03:00:07.647Z,18.00
2022-11-20T03:02:35.047Z,18.00
2022-11-20T03:05:01.780Z,18.00
2022-11-20T03:07:28.544Z,17.90
2022-11-20T03:09:55.187Z,18.00
2022-11-20T03:12:21.828Z,18.00
2022-11-20T03:14:52.768Z,17.90
2022-11-20T03:17:19.970Z,17.90
2022-11-20T03:19:46.548Z,18.00
2022-11-20T03:22:13.265Z,17.90
2022-11-20T03:24:39.870Z,17.90
2022-11-20T03:27:06.529Z,17.90
2022-11-20T03:29:33.340Z,17.90
2022-11-20T03:31:59.975Z,17.90
2022-11-20T03:34:26.569Z,17.90
2022-11-20T03:36:53.150Z,17.90
2022-11-20T03:39:20.102Z,17.90
2022-11-20T03:41:46.973Z,17.90
2022-11-20T03:44:13.643Z,17.90
2022-11-20T03:46:40.411Z,18.80
2022-11-20T03:49:07.098Z,17.90
2022-11-20T03:51:36.603Z,17.90
2022-11-20T03:54:06.535Z,17.90
2022-11-20T03:56:35.923Z,17.90
2022-11-20T03:59:02.788Z,17.90
2022-11-20T04:01:32.773Z,17.90
2022-11-20T04:03:59.493Z,17.90
2022-11-20T04:06:28.858Z,17.80
2022-11-20T04:08:56.829Z,17.90
2022-11-20T04:11:31.644Z,17.90
2022-11-20T04:14:00.607Z,17.90
2022-11-20T04:16:29.951Z,17.90
2022-11-20T04:18:58.599Z,17.90
2022-11-20T04:21:26.451Z,17.90
2022-11-20T04:23:54.018Z,17.90
2022-11-20T04:26:22.294Z,17.90
2022-11-20T04:28:48.898Z,17.90
2022-11-20T04:31:21.104Z,17.90
2022-11-20T04:33:47.841Z,17.90
2022-11-20T04:36:20.345Z,17.90
2022-11-20T04:38:50.324Z,17.90
2022-11-20T04:41:21.388Z,17.90
2022-11-20T04:43:49.627Z,17.90
2022-11-20T04:46:17.430Z,17.90
2022-11-20T04:48:44.366Z,17.90
2022-11-20T04:51:10.978Z,17.80
2022-11-20T04:53:38.086Z,17.90
2022-11-20T04:56:07.933Z,17.80
2022-11-20T04:58:35.296Z,17.80
2022-11-20T05:01:07.026Z,17.80
2022-11-20T05:03:35.553Z,17.90
2022-11-20T05:06:07.084Z,17.80
2022-11-20T05:08:34.899Z,17.80
2022-11-20T05:11:10.109Z,17.80
2022-11-20T05:13:37.639Z,17.80
2022-11-20T05:16:10.179Z,17.80
2022-11-20T05:18:38.101Z,17.80
2022-11-20T05:21:05.227Z,17.80
2022-11-20T05:23:33.343Z,17.80
2022-11-20T05:26:00.903Z,17.80
2022-11-20T05:28:29.482Z,17.80
2022-11-20T05:30:56.502Z,17.80
2022-11-20T05:33:23.301Z,17.80
2022-11-20T05:35:50.681Z,17.80
2022-11-20T05:38:17.300Z,17.80
2022-11-20T05:40:43.985Z,17.80
2022-11-20T05:43:10.672Z,17.80
2022-11-20T05:45:37.291Z,17.70
2022-11-20T05:48:04.257Z,17.80
2022-11-20T05:50:31.477Z,17.70
2022-11-20T05:53:01.506Z,17.70
2022-11-20T05:55:28.612Z,17.80
2022-11-20T05:57:55.772Z,17.70
2022-11-20T06:00:22.879Z,17.70
2022-11-20T06:02:49.551Z,17.80
2022-11-20T06:05:16.265Z,17.70
2022-11-20T06:07:42.934Z,17.70
2022-11-20T06:10:09.871Z,17.70
2022-11-20T06:12:36.479Z,17.70
2022-11-20T06:15:03.759Z,17.70
2022-11-20T06:17:30.370Z,17.70
2022-11-20T06:19:56.974Z,17.70
2022-11-20T06:22:23.685Z,17.70
2022-11-20T06:24:50.407Z,17.70
2022-11-20T06:27:17.554Z,17.70
2022-11-20T06:29:44.295Z,17.70
2022-11-20T06:32:11.167Z,17.70
2022-11-20T06:34:37.803Z,17.70
2022-11-20T06:37:04.407Z,17.70
2022-11-20T06:39:30.994Z,17.70
2022-11-20T06:41:59.235Z,17.70
2022-11-20T06:44:26.521Z,17.70
2022-11-20T06:46:53.129Z,17.70
2022-11-20T06:49:19.955Z,17.70
2022-11-20T06:51:46.718Z,17.70
2022-11-20T06:54:13.312Z,17.70
2022-11-20T06:56:39.940Z,17.70
2022-11-20T06:59:07.942Z,17.70
2022-11-20T07:01:35.823Z,17.70
2022-11-20T07:04:04.013Z,17.70
2022-11-20T07:06:30.911Z,17.70
2022-11-20T07:08:57.840Z,17.70
2022-11-20T07:11:24.851Z,17.70
2022-11-20T07:13:51.741Z,17.70
2022-11-20T07:16:18.361Z,17.70
2022-11-20T07:18:50.195Z,17.70
2022-11-20T07:21:17.558Z,17.70
2022-11-20T07:23:44.123Z,17.70
2022-11-20T07:26:11.758Z,17.70
2022-11-20T07:28:38.444Z,17.80
2022-11-20T07:31:05.909Z,17.70
2022-11-20T07:33:32.661Z,17.70
2022-11-20T07:36:00.907Z,17.70
2022-11-20T07:38:27.712Z,17.70
2022-11-20T07:40:56.509Z,17.70
2022-11-20T07:43:23.134Z,17.70
2022-11-20T07:45:49.704Z,18.40
2022-11-20T07:48:16.350Z,17.70
2022-11-20T07:50:42.958Z,17.80
2022-11-20T07:53:09.568Z,17.80
2022-11-20T07:55:36.149Z,17.80
2022-11-20T07:58:02.912Z,17.80
2022-11-20T08:00:29.612Z,17.80
2022-11-20T08:02:56.359Z,17.80
2022-11-20T08:05:23.007Z,17.80
2022-11-20T08:07:49.757Z,17.80
2022-11-20T08:10:17.468Z,17.80
2022-11-20T08:13:12.412Z,17.80
2022-11-20T08:15:40.540Z,17.80
2022-11-20T08:20:56.532Z,17.80
2022-11-20T08:23:23.882Z,17.80
2022-11-20T08:25:51.994Z,17.80
2022-11-20T08:28:21.784Z,17.80
2022-11-20T08:30:50.718Z,17.80
2022-11-20T08:33:18.153Z,17.80
2022-11-20T08:35:44.756Z,17.80
2022-11-20T08:38:11.383Z,17.80
2022-11-20T08:40:38.003Z,17.80
2022-11-20T08:43:05.165Z,17.80
2022-11-20T08:45:34.733Z,17.80
2022-11-20T08:48:02.463Z,17.90
2022-11-20T08:50:29.251Z,17.90
2022-11-20T08:52:55.852Z,18.00
2022-11-20T08:55:22.458Z,18.00
2022-11-20T08:57:51.058Z,18.00
2022-11-20T09:00:18.174Z,18.00
2022-11-20T09:02:44.765Z,18.00
2022-11-20T09:05:11.332Z,18.00
2022-11-20T09:07:38.229Z,18.00
2022-11-20T09:12:53.059Z,18.00
2022-11-20T09:15:19.983Z,18.00
2022-11-20T09:17:57.718Z,18.00
2022-11-20T09:20:24.776Z,18.00
2022-11-20T09:22:51.607Z,18.00
2022-11-20T09:25:18.877Z,18.00
2022-11-20T09:27:46.856Z,18.20
2022-11-20T09:30:17.028Z,18.00
2022-11-20T09:32:44.111Z,18.00
2022-11-20T09:35:11.661Z,18.00
2022-11-20T09:37:38.785Z,18.00
2022-11-20T09:40:06.007Z,18.00
2022-11-20T09:43:04.242Z,18.00
2022-11-20T09:45:51.743Z,18.00
2022-11-20T09:48:37.615Z,18.10
2022-11-20T09:51:14.598Z,18.20
2022-11-20T09:54:14.523Z,18.10
2022-11-20T09:56:44.733Z,18.20
2022-11-20T09:59:34.678Z,18.20
2022-11-20T10:02:03.555Z,18.30
2022-11-20T10:04:36.905Z,18.20
2022-11-20T10:07:32.321Z,18.20
2022-11-20T10:10:00.024Z,18.20
2022-11-20T10:12:50.011Z,18.20
2022-11-20T10:15:16.593Z,18.20
2022-11-20T10:17:59.894Z,18.20
2022-11-20T10:20:50.716Z,18.20
2022-11-20T10:23:45.818Z,18.20
2022-11-20T10:26:18.372Z,18.20
2022-11-20T10:29:23.469Z,18.10
2022-11-20T10:31:56.905Z,18.30
2022-11-20T10:34:45.552Z,18.20
2022-11-20T10:37:23.765Z,18.30
2022-11-20T10:40:02.863Z,18.30
2022-11-20T10:42:56.939Z,18.30
2022-11-20T10:45:23.508Z,18.30
2022-11-20T10:47:50.168Z,18.30
2022-11-20T10:50:22.531Z,18.30
2022-11-20T10:53:13.346Z,18.40
2022-11-20T10:56:01.182Z,18.40
2022-11-20T10:58:48.688Z,18.40
2022-11-20T11:01:27.400Z,18.40
2022-11-20T11:03:56.183Z,17.20
2022-11-20T11:06:40.519Z,18.30
2022-11-20T11:09:16.656Z,18.30
2022-11-20T11:11:43.494Z,18.30
2022-11-20T11:14:15.564Z,18.30
2022-11-20T11:16:57.735Z,18.40
2022-11-20T11:19:25.400Z,18.40
2022-11-20T11:21:57.550Z,18.40
2022-11-20T11:24:41.514Z,18.40
2022-11-20T11:27:18.557Z,18.40
2022-11-20T11:29:46.700Z,18.40
2022-11-20T11:32:18.725Z,18.40
2022-11-20T11:34:45.407Z,18.40
2022-11-20T11:37:19.093Z,18.40
2022-11-20T11:39:55.120Z,18.40
2022-11-20T11:42:26.018Z,18.40
2022-11-20T11:45:08.387Z,18.30
2022-11-20T11:47:44.091Z,18.40
2022-11-20T11:50:10.644Z,18.40
2022-11-20T11:53:01.996Z,18.40
2022-11-20T11:55:31.643Z,18.40
2022-11-20T11:58:22.853Z,18.30
2022-11-20T12:00:59.790Z,18.30
2022-11-20T12:03:35.331Z,18.40
2022-11-20T12:06:10.012Z,18.40
2022-11-20T12:08:54.066Z,18.40
2022-11-20T12:11:44.524Z,18.30
2022-11-20T12:14:15.314Z,18.40
2022-11-20T12:16:42.134Z,18.40
2022-11-20T12:19:14.641Z,18.60
2022-11-20T12:21:53.103Z,18.50
2022-11-20T12:24:33.779Z,18.80
2022-11-20T12:27:03.144Z,18.90
2022-11-20T12:29:35.622Z,18.80
2022-11-20T12:32:32.316Z,18.70
2022-11-20T12:35:17.770Z,18.50
2022-11-20T12:38:08.749Z,18.50
2022-11-20T12:40:46.677Z,18.50
2022-11-20T12:43:34.445Z,18.50
2022-11-20T12:46:43.643Z,18.40
2022-11-20T12:49:26.442Z,18.40
2022-11-20T12:52:08.563Z,18.40
2022-11-20T12:55:15.652Z,18.40
2022-11-20T12:57:50.254Z,18.50
2022-11-20T13:00:20.903Z,18.40
2022-11-20T13:03:08.813Z,18.40
2022-11-20T13:05:41.006Z,18.40
2022-11-20T13:08:17.783Z,18.50
2022-11-20T13:11:18.045Z,18.40
2022-11-20T13:13:59.294Z,18.40
2022-11-20T13:16:37.448Z,19.50
2022-11-20T13:19:14.113Z,18.40
2022-11-20T13:21:43.599Z,18.40
2022-11-20T13:24:28.670Z,18.40
2022-11-20T13:27:08.419Z,18.40
2022-11-20T13:29:37.125Z,18.40
2022-11-20T13:32:24.111Z,18.40
2022-11-20T13:34:56.128Z,18.40
2022-11-20T13:37:40.861Z,18.40
2022-11-20T13:40:12.957Z,18.40
2022-11-20T13:43:17.172Z,18.40
2022-11-20T13:45:55.153Z,18.40
2022-11-20T13:48:24.443Z,18.40
2022-11-20T13:51:02.624Z,18.40
2022-11-20T13:53:48.548Z,18.40
2022-11-20T13:56:40.961Z,18.40
2022-11-20T13:59:41.046Z,18.40
2022-11-20T14:02:22.989Z,18.40
2022-11-20T14:04:52.009Z,18.40
2022-11-20T14:07:21.285Z,18.40
2022-11-20T14:09:56.541Z,18.40
2022-11-20T14:12:34.903Z,18.40
2022-11-20T14:15:01.818Z,18.30
2022-11-20T14:17:34.742Z,18.40
2022-11-20T14:20:05.791Z,18.40
2022-11-20T14:22:32.538Z,18.40
2022-11-20T14:25:17.573Z,18.40
2022-11-20T14:27:48.513Z,18.40
2022-11-20T14:30:17.355Z,18.40
2022-11-20T14:32:45.923Z,18.40
2022-11-20T14:35:28.781Z,18.50
2022-11-20T14:37:56.572Z,18.50
2022-11-20T14:40:32.747Z,18.50
2022-11-20T14:43:00.400Z,18.50
2022-11-20T14:45:27.908Z,18.50
2022-11-20T14:47:57.559Z,18.50
2022-11-20T14:50:28.920Z,18.50
2022-11-20T14:52:58.513Z,18.60
2022-11-20T14:55:38.062Z,18.60
2022-11-20T14:58:23.420Z,18.50
2022-11-20T15:00:57.419Z,18.50
2022-11-20T15:03:29.172Z,18.50
2022-11-20T15:05:58.303Z,18.50
2022-11-20T15:08:24.902Z,18.60
2022-11-20T15:10:53.106Z,18.60
2022-11-20T15:13:27.350Z,18.60
2022-11-20T15:15:56.431Z,18.50
2022-11-20T15:18:29.303Z,18.50
2022-11-20T15:20:58.551Z,18.60
2022-11-20T15:23:27.031Z,18.60
2022-11-20T15:25:53.705Z,18.60
2022-11-20T15:28:32.652Z,18.60
2022-11-20T15:30:59.751Z,18.50
2022-11-20T15:33:26.403Z,18.50
2022-11-20T15:35:53.019Z,18.50
2022-11-20T15:38:19.697Z,18.50
2022-11-20T15:40:46.306Z,18.50
2022-11-20T15:43:13.996Z,18.50
2022-11-20T15:45:46.949Z,18.50
2022-11-20T15:48:19.027Z,18.60
2022-11-20T15:51:10.205Z,18.60
2022-11-20T15:53:41.188Z,18.60
2022-11-20T15:56:12.685Z,18.60
2022-11-20T15:58:40.219Z,18.50
2022-11-20T16:01:10.554Z,18.50
2022-11-20T16:03:37.343Z,18.50
2022-11-20T16:06:04.026Z,18.50
2022-11-20T16:08:30.624Z,18.50
2022-11-20T16:10:57.216Z,18.50
2022-11-20T16:13:42.479Z,18.50
2022-11-20T16:16:23.402Z,18.50
2022-11-20T16:18:50.712Z,18.40
2022-11-20T16:21:17.608Z,18.50
2022-11-20T16:23:44.389Z,18.50
2022-11-20T16:26:17.764Z,18.40
2022-11-20T16:28:44.682Z,18.40
2022-11-20T16:31:12.323Z,18.40
2022-11-20T16:33:39.146Z,18.40
2022-11-20T16:36:15.118Z,18.40
2022-11-20T16:38:42.165Z,18.40
2022-11-20T16:41:14.512Z,18.40
2022-11-20T16:44:10.715Z,18.40
2022-11-20T16:46:37.738Z,18.40
2022-11-20T16:49:14.941Z,18.50
2022-11-20T16:51:42.667Z,18.50
2022-11-20T16:54:10.179Z,18.50
2022-11-20T16:56:37.288Z,18.50
2022-11-20T16:59:04.547Z,18.50
2022-11-20T17:01:32.524Z,18.60
2022-11-20T17:04:02.037Z,18.50
2022-11-20T17:06:31.755Z,18.60
2022-11-20T17:08:58.864Z,18.50
2022-11-20T17:11:26.376Z,18.60
2022-11-20T17:13:55.411Z,18.60
2022-11-20T17:16:24.686Z,18.60
2022-11-20T17:18:51.574Z,18.70
2022-11-20T17:21:19.335Z,18.70
2022-11-20T17:23:46.951Z,18.70
2022-11-20T17:26:17.621Z,18.70
2022-11-20T17:28:46.128Z,18.70
2022-11-20T17:31:16.347Z,18.70
2022-11-20T17:33:45.060Z,18.60
2022-11-20T17:36:13.983Z,18.60
2022-11-20T17:38:40.951Z,18.60
2022-11-20T17:41:12.228Z,18.50
2022-11-20T17:43:39.443Z,18.50
2022-11-20T17:46:12.951Z,18.60
2022-11-20T17:48:42.290Z,18.50
2022-11-20T17:51:12.238Z,18.50
2022-11-20T17:53:41.077Z,18.60
2022-11-20T17:56:26.895Z,18.70
2022-11-20T17:58:54.044Z,18.60
2022-11-20T18:01:21.788Z,18.60
2022-11-20T18:03:48.815Z,18.60
2022-11-20T18:06:18.161Z,18.60
2022-11-20T18:08:45.847Z,18.60
2022-11-20T18:11:14.527Z,18.60
2022-11-20T18:14:02.171Z,18.60
2022-11-20T18:16:30.964Z,18.70
2022-11-20T18:18:58.673Z,18.70
2022-11-20T18:21:28.124Z,18.70
2022-11-20T18:23:55.865Z,18.70
2022-11-20T18:26:22.634Z,18.70
2022-11-20T18:28:50.011Z,18.60
2022-11-20T18:31:16.782Z,18.60
2022-11-20T18:33:43.544Z,18.60
2022-11-20T18:36:18.989Z,18.60
2022-11-20T18:38:47.652Z,18.60
2022-11-20T18:41:38.283Z,18.60
2022-11-20T18:44:25.480Z,18.50
2022-11-20T18:46:52.318Z,18.60
2022-11-20T18:49:18.907Z,18.50
2022-11-20T18:51:45.556Z,18.50
2022-11-20T18:54:13.037Z,18.50
2022-11-20T18:56:40.131Z,18.50
2022-11-20T18:59:08.922Z,18.50
2022-11-20T19:01:35.954Z,18.50
2022-11-20T19:04:07.831Z,18.50
2022-11-20T19:06:35.462Z,18.40
2022-11-20T19:09:04.008Z,18.50
2022-11-20T19:11:31.061Z,18.40
2022-11-20T19:13:58.451Z,18.50
2022-11-20T19:16:25.251Z,18.50
2022-11-20T19:18:51.833Z,18.50
2022-11-20T19:21:23.781Z,18.40
2022-11-20T19:23:56.432Z,18.50
2022-11-20T19:26:23.486Z,18.50
2022-11-20T19:28:50.868Z,18.50
2022-11-20T19:31:37.902Z,18.60
2022-11-20T19:34:05.123Z,18.60
2022-11-20T19:36:34.324Z,18.60
2022-11-20T19:39:01.954Z,18.60
2022-11-20T19:41:31.448Z,18.70
2022-11-20T19:43:59.634Z,18.60
2022-11-20T19:46:27.521Z,18.70
2022-11-20T19:48:55.585Z,18.60
2022-11-20T19:51:28.338Z,18.60
2022-11-20T19:53:57.355Z,18.70
2022-11-20T19:56:24.634Z,18.60
2022-11-20T19:58:53.218Z,18.60
2022-11-20T20:01:22.973Z,18.50
2022-11-20T20:03:50.443Z,18.50
2022-11-20T20:06:22.886Z,18.50
2022-11-20T20:09:09.982Z,18.50
2022-11-20T20:11:37.597Z,18.50
2022-11-20T20:14:10.027Z,18.50
2022-11-20T20:16:36.893Z,18.50
2022-11-20T20:19:04.765Z,18.50
2022-11-20T20:21:32.808Z,18.50
2022-11-20T20:23:59.797Z,18.50
2022-11-20T20:26:28.664Z,18.40
2022-11-20T20:28:55.391Z,18.50
2022-11-20T20:31:24.918Z,18.40
2022-11-20T20:33:51.597Z,18.40
2022-11-20T20:36:20.079Z,18.40
2022-11-20T20:38:47.148Z,18.40
2022-11-20T20:41:14.805Z,18.40
2022-11-20T20:44:04.860Z,18.40
2022-11-20T20:46:31.708Z,18.50
2022-11-20T20:48:58.472Z,18.50
2022-11-20T20:51:25.163Z,18.50
2022-11-20T20:53:51.832Z,18.50
2022-11-20T20:56:18.886Z,18.60
2022-11-20T21:01:14.821Z,18.50
2022-11-20T21:03:42.114Z,18.50
2022-11-20T21:06:10.756Z,18.50
2022-11-20T21:08:40.627Z,18.50
2022-11-20T21:11:13.839Z,18.50
2022-11-20T21:13:42.767Z,18.50
2022-11-20T21:16:09.949Z,18.40
2022-11-20T21:18:36.612Z,18.50
2022-11-20T21:21:26.414Z,18.50
2022-11-20T21:23:53.504Z,18.50
2022-11-20T21:26:20.962Z,18.50
2022-11-20T21:28:48.014Z,18.40
2022-11-20T21:31:16.889Z,18.50
2022-11-20T21:33:45.859Z,18.40
2022-11-20T21:36:15.465Z,18.40
2022-11-20T21:38:42.616Z,18.40
2022-11-20T21:41:10.883Z,18.40
2022-11-20T21:43:38.132Z,18.40
2022-11-20T21:46:10.544Z,18.40
2022-11-20T21:48:39.589Z,18.40
2022-11-20T21:51:09.020Z,18.40
2022-11-20T21:53:35.721Z,18.40
2022-11-20T21:56:04.143Z,18.40
2022-11-20T21:58:31.366Z,18.40
2022-11-20T22:00:58.197Z,18.40
2022-11-20T22:03:25.036Z,18.30
2022-11-20T22:05:56.444Z,18.30
2022-11-20T22:08:27.093Z,18.30
2022-11-20T22:10:55.763Z,18.30
2022-11-20T22:13:42.314Z,18.30
2022-11-20T22:16:09.579Z,18.40
2022-11-20T22:18:36.548Z,18.40
2022-11-20T22:21:07.211Z,18.30
2022-11-20T22:23:34.594Z,18.30
2022-11-20T22:26:03.344Z,18.30
2022-11-20T22:28:30.029Z,18.30
2022-11-20T22:31:00.633Z,18.30
2022-11-20T22:33:29.044Z,18.30
2022-11-20T22:36:06.072Z,18.30
2022-11-20T22:38:38.913Z,18.30
2022-11-20T22:41:15.841Z,18.30
2022-11-20T22:43:43.449Z,18.30
2022-11-20T22:46:13.199Z,18.30
2022-11-20T22:48:42.510Z,18.30
2022-11-20T22:51:14.536Z,18.30
2022-11-20T22:53:42.753Z,18.30
2022-11-20T22:56:12.395Z,18.30
2022-11-20T22:58:41.347Z,18.30
2022-11-20T23:01:19.585Z,18.30
2022-11-20T23:03:48.417Z,18.30
2022-11-20T23:06:16.662Z,18.20
2022-11-20T23:08:44.269Z,18.30
2022-11-20T23:11:17.490Z,18.30
2022-11-20T23:13:45.402Z,18.30
2022-11-20T23:16:22.050Z,18.30
2022-11-20T23:18:52.577Z,18.30
2022-11-20T23:21:20.016Z,18.30
2022-11-20T23:23:52.522Z,18.30
2022-11-20T23:26:20.955Z,18.30
2022-11-20T23:28:47.846Z,18.30
2022-11-20T23:31:16.023Z,18.20
2022-11-20T23:33:44.820Z,18.30
2022-11-20T23:36:12.400Z,18.20
2022-11-20T23:38:39.155Z,18.20
2022-11-20T23:41:05.901Z,18.30
2022-11-20T23:43:32.565Z,18.20
2022-11-20T23:46:00.860Z,18.20
2022-11-20T23:48:30.330Z,18.20
2022-11-20T23:50:57.176Z,18.20
2022-11-20T23:53:24.679Z,18.20
2022-11-20T23:55:56.141Z,18.20
2022-11-20T23:58:24.603Z,18.20
